Tucumcari ASC Data

Date Time Air Temperature Relative Humidity Dewpoint Windchill Heat Index Wind Speed Wind Dir. Rain Solar Radiation Soil Temperature
2m 2m 3m 3m 10cm
US/Mountain F % F F F MPH deg in MJ/m^2 F
max avg avg
2021-07-22 00:05:00 70.3 55.4 53.5 70.3 70.3 4.0 6.2 4.6 147.9 153.9 0.00 0.0000000 81.1
2021-07-22 00:10:00 70.2 54.6 53.1 70.2 70.2 6.3 9.2 6.2 154.0 155.7 0.00 0.0000000 81.0
2021-07-22 00:15:00 70.3 53.1 52.4 70.3 70.3 8.3 11.0 6.7 167.8 158.5 0.00 0.0000000 80.9
2021-07-22 00:20:00 70.7 52.0 52.2 70.7 70.7 6.9 10.5 7.2 148.9 154.5 0.00 0.0000000 80.8
2021-07-22 00:25:00 70.7 51.5 52.0 70.7 70.7 5.5 8.8 6.9 170.1 154.4 0.00 0.0000000 80.7
2021-07-22 00:30:00 70.6 51.0 51.5 70.6 70.6 8.8 12.4 7.9 174.3 155.1 0.00 0.0000000 80.6
2021-07-22 00:35:00 70.2 52.1 51.8 70.2 70.2 4.6 8.8 5.6 157.3 154.3 0.00 0.0000000 80.5
2021-07-22 00:40:00 69.8 52.6 51.7 69.8 69.8 5.5 7.6 5.7 129.8 153.3 0.00 0.0000000 80.4
2021-07-22 00:45:00 69.7 53.2 51.9 69.7 69.7 5.5 6.5 5.5 151.2 152.6 0.00 0.0000000 80.3
2021-07-22 00:50:00 69.3 53.5 51.7 69.3 69.3 4.4 6.7 5.3 137.7 146.2 0.00 0.0000000 80.2
2021-07-22 00:55:00 69.1 54.1 51.8 69.1 69.1 4.9 6.7 4.6 154.0 147.5 0.00 0.0000000 80.1
2021-07-22 01:00:00 68.8 54.5 51.7 68.8 68.8 3.8 6.3 4.2 149.7 151.7 0.00 0.0000000 80.0
2021-07-22 01:05:00 68.7 53.5 51.2 68.7 68.7 6.2 6.5 4.4 160.5 162.1 0.00 0.0000000 79.9
2021-07-22 01:10:00 68.7 53.8 51.3 68.7 68.7 4.0 5.5 4.4 162.6 164.9 0.00 0.0000000 79.8
2021-07-22 01:15:00 68.5 53.9 51.1 68.5 68.5 4.2 5.5 3.8 154.4 157.4 0.00 0.0000000 79.7
2021-07-22 01:20:00 68.3 53.9 51.0 68.3 68.3 3.0 4.7 3.6 140.8 143.0 0.00 0.0000000 79.6
2021-07-22 01:25:00 68.2 54.2 51.1 68.2 68.2 2.4 5.1 3.7 167.3 156.3 0.00 0.0000000 79.5
2021-07-22 01:30:00 68.2 54.7 51.3 68.2 68.2 4.0 4.4 3.5 153.9 153.4 0.00 0.0000000 79.4
2021-07-22 01:35:00 67.8 55.7 51.4 67.8 67.8 4.0 4.7 4.1 163.2 145.1 0.00 0.0000000 79.3
2021-07-22 01:40:00 67.4 56.8 51.5 67.4 67.4 3.1 4.6 3.4 184.8 162.7 0.00 0.0000000 79.2
2021-07-22 01:45:00 67.6 56.1 51.4 67.6 67.6 4.0 6.0 3.5 181.5 184.6 0.00 0.0000000 79.1
2021-07-22 01:50:00 67.6 56.9 51.8 67.6 67.6 4.6 5.3 4.2 167.6 172.4 0.00 0.0000000 79.0
2021-07-22 01:55:00 67.2 57.6 51.8 67.2 67.2 6.5 6.5 4.4 162.1 173.1 0.00 0.0000000 78.9
2021-07-22 02:00:00 67.2 57.2 51.6 67.2 67.2 6.9 7.4 5.7 178.7 177.3 0.00 0.0000000 78.9
2021-07-22 02:05:00 67.6 56.7 51.7 67.6 67.6 6.7 8.5 6.3 175.3 174.7 0.00 0.0000000 78.7
2021-07-22 02:10:00 67.7 56.5 51.7 67.7 67.7 6.0 8.0 6.0 159.1 179.8 0.00 0.0000000 78.7
2021-07-22 02:15:00 68.0 55.6 51.5 68.0 68.0 5.8 7.8 5.7 178.7 168.6 0.00 0.0000000 78.5
2021-07-22 02:20:00 68.0 55.2 51.4 68.0 68.0 6.7 7.2 5.0 168.3 170.8 0.00 0.0000000 78.5
2021-07-22 02:25:00 68.1 55.0 51.3 68.1 68.1 6.2 8.3 5.2 142.1 167.1 0.00 0.0000000 78.4
2021-07-22 02:30:00 68.5 53.4 50.9 68.5 68.5 8.3 10.5 6.9 210.0 174.1 0.00 0.0000000 78.3
2021-07-22 02:35:00 68.3 53.8 51.0 68.3 68.3 8.5 9.0 6.9 172.9 166.9 0.00 0.0000000 78.3
2021-07-22 02:40:00 68.5 53.5 50.9 68.5 68.5 8.8 9.6 7.3 174.5 174.0 0.00 0.0000000 78.2
2021-07-22 02:45:00 68.6 52.9 50.7 68.6 68.6 10.1 10.1 7.2 184.3 175.1 0.00 0.0000000 78.1
2021-07-22 02:50:00 69.0 52.4 50.8 69.0 69.0 8.3 10.5 7.9 192.4 188.9 0.00 0.0000000 78.0
2021-07-22 02:55:00 68.8 52.9 51.0 68.8 68.8 8.5 11.2 8.6 170.2 182.8 0.00 0.0000000 78.0
2021-07-22 03:00:00 68.5 54.2 51.3 68.5 68.5 4.9 10.5 7.5 185.0 185.3 0.00 0.0000000 77.9
2021-07-22 03:05:00 68.1 55.9 51.8 68.1 68.1 6.7 8.8 5.9 178.1 189.3 0.00 0.0000000 77.8
2021-07-22 03:10:00 67.9 56.7 51.9 67.9 67.9 6.5 8.8 6.5 178.9 188.0 0.00 0.0000000 77.8
2021-07-22 03:15:00 67.8 56.5 51.8 67.8 67.8 10.5 10.5 7.3 198.8 193.7 0.00 0.0000000 77.7
2021-07-22 03:20:00 67.7 57.3 52.1 67.7 67.7 4.4 9.7 6.9 188.2 188.9 0.00 0.0000000 77.6
2021-07-22 03:25:00 67.6 57.9 52.3 67.6 67.6 3.5 6.7 4.6 225.4 201.7 0.00 0.0000000 77.6
2021-07-22 03:30:00 67.6 57.5 52.1 67.6 67.6 4.6 8.5 5.7 199.3 199.4 0.00 0.0000000 77.5
2021-07-22 03:35:00 67.5 57.7 52.1 67.5 67.5 3.8 8.5 5.4 194.8 186.4 0.00 0.0000000 77.5
2021-07-22 03:40:00 67.4 56.9 51.6 67.4 67.4 7.1 9.2 6.1 215.9 189.1 0.00 0.0000000 77.4
2021-07-22 03:45:00 67.4 56.8 51.5 67.4 67.4 8.1 11.5 6.2 202.7 190.3 0.00 0.0000000 77.3
2021-07-22 03:50:00 67.5 56.5 51.5 67.5 67.5 5.5 8.8 6.3 171.2 191.6 0.00 0.0000000 77.3
2021-07-22 03:55:00 67.6 56.2 51.5 67.6 67.6 5.8 8.0 5.2 181.9 187.1 0.00 0.0000000 77.3
2021-07-22 04:00:00 67.2 56.9 51.4 67.2 67.2 6.0 6.9 4.7 209.7 198.1 0.00 0.0000000 77.2
2021-07-22 04:05:00 67.4 56.5 51.4 67.4 67.4 8.0 9.6 6.9 185.6 196.9 0.00 0.0000000 77.1
2021-07-22 04:10:00 67.1 56.9 51.3 67.1 67.1 6.7 8.7 6.7 194.2 190.6 0.00 0.0000000 77.1
2021-07-22 04:15:00 67.1 57.4 51.6 67.1 67.1 6.9 11.2 6.6 174.7 186.7 0.00 0.0000000 77.0
2021-07-22 04:20:00 66.8 57.8 51.4 66.8 66.8 9.6 9.6 6.9 177.0 175.5 0.00 0.0000000 76.9
2021-07-22 04:25:00 66.6 58.6 51.7 66.6 66.6 9.6 11.0 7.0 188.2 181.6 0.00 0.0000000 76.9
2021-07-22 04:30:00 66.6 59.0 51.9 66.6 66.6 5.6 10.3 6.9 173.4 175.8 0.00 0.0000000 76.8
2021-07-22 04:35:00 66.7 58.9 51.9 66.7 66.7 7.4 10.8 6.9 168.6 179.1 0.00 0.0000000 76.7
2021-07-22 04:40:00 66.6 59.2 52.0 66.6 66.6 6.5 8.5 6.6 186.4 178.7 0.00 0.0000000 76.7
2021-07-22 04:45:00 66.8 59.3 52.1 66.8 66.8 6.3 9.9 6.6 174.7 182.5 0.00 0.0000000 76.6
2021-07-22 04:50:00 66.8 59.5 52.2 66.8 66.8 4.6 8.5 6.4 164.7 190.5 0.00 0.0000000 76.5
2021-07-22 04:55:00 66.6 60.0 52.3 66.6 66.6 6.9 7.8 5.1 197.2 188.0 0.00 0.0000000 76.4
2021-07-22 05:00:00 66.5 60.7 52.5 66.5 66.5 4.9 7.6 5.4 192.6 178.6 0.00 0.0000000 76.4
2021-07-22 05:05:00 66.3 61.3 52.5 66.3 66.3 6.2 6.3 5.2 184.9 181.9 0.00 0.0000000 76.3
2021-07-22 05:10:00 66.3 61.9 52.9 66.3 66.3 4.4 6.0 3.9 166.4 190.7 0.00 0.0000000 76.2
2021-07-22 05:15:00 65.9 62.8 52.9 65.9 65.9 3.0 5.5 2.9 181.6 183.0 0.00 0.0000000 76.2
2021-07-22 05:20:00 65.9 62.7 52.9 65.9 65.9 2.6 4.4 2.6 172.7 174.4 0.00 0.0000000 76.1
2021-07-22 05:25:00 65.9 63.1 53.0 65.9 65.9 3.0 4.2 3.0 173.8 191.0 0.00 0.0000000 76.1
2021-07-22 05:30:00 65.8 63.1 52.8 65.8 65.8 2.8 5.5 3.4 168.2 169.2 0.00 0.0000000 76.0
2021-07-22 05:35:00 65.8 63.2 52.9 65.8 65.8 4.6 5.8 4.1 195.8 185.3 0.00 0.0000000 75.9
2021-07-22 05:40:00 65.6 63.5 52.9 65.6 65.6 3.7 5.8 4.1 175.0 188.1 0.00 0.0000000 75.8
2021-07-22 05:45:00 65.6 64.0 53.1 65.6 65.6 6.7 6.7 4.0 195.0 183.2 0.00 0.0000000 75.8
2021-07-22 05:50:00 65.8 63.9 53.2 65.8 65.8 4.0 7.1 4.8 179.6 185.4 0.00 0.0000000 75.8
2021-07-22 05:55:00 65.7 64.3 53.3 65.7 65.7 6.0 7.1 5.5 150.7 187.5 0.00 0.0000355 75.7
2021-07-22 06:00:00 66.0 63.8 53.4 66.0 66.0 6.2 10.5 7.0 182.2 187.6 0.00 0.0004461 75.6
2021-07-22 06:05:00 66.1 64.3 53.7 66.1 66.1 5.6 8.5 6.1 191.0 185.2 0.00 0.0010752 75.5
2021-07-22 06:10:00 66.0 64.8 53.8 66.0 66.0 5.3 8.3 5.9 176.3 184.3 0.00 0.0018587 75.5
2021-07-22 06:15:00 65.7 65.5 53.8 65.7 65.7 4.7 7.6 6.0 180.6 183.5 0.00 0.0029136 75.4
2021-07-22 06:20:00 65.6 65.9 53.9 65.6 65.6 6.5 7.8 5.7 173.4 177.8 0.00 0.0030959 75.3
2021-07-22 06:25:00 65.7 65.8 53.9 65.7 65.7 5.8 7.2 5.5 171.7 184.6 0.00 0.0046718 75.3
2021-07-22 06:30:00 65.7 66.1 54.0 65.7 65.7 5.5 6.0 4.8 203.9 186.7 0.00 0.0065761 75.3
2021-07-22 06:35:00 65.6 66.5 54.1 65.6 65.6 4.6 6.2 4.8 182.1 180.8 0.00 0.0091370 75.2
2021-07-22 06:40:00 65.4 67.2 54.2 65.4 65.4 4.7 6.2 4.7 168.3 174.7 0.00 0.0139437 75.1
2021-07-22 06:45:00 65.5 67.3 54.4 65.5 65.5 4.6 5.8 4.4 181.2 171.5 0.00 0.0165161 75.1
2021-07-22 06:50:00 65.7 67.6 54.6 65.7 65.7 2.2 5.6 3.7 135.8 163.5 0.00 0.0258011 75.0
2021-07-22 06:55:00 66.0 67.4 54.9 66.0 66.0 4.4 5.3 3.5 160.6 168.8 0.00 0.0325770 75.0
2021-07-22 07:00:00 66.5 66.0 54.8 66.5 66.5 6.2 6.2 4.5 156.3 164.7 0.00 0.0371022 75.0
2021-07-22 07:05:00 66.7 65.7 54.8 66.7 66.7 4.2 6.3 5.1 176.1 169.4 0.00 0.0419371 75.0
2021-07-22 07:10:00 67.1 65.3 55.1 67.1 67.1 4.0 6.3 5.1 168.9 174.6 0.00 0.0462999 75.0
2021-07-22 07:15:00 67.2 64.7 55.0 67.2 67.2 4.4 6.2 5.0 171.3 178.4 0.00 0.0506039 75.0
2021-07-22 07:20:00 67.7 63.4 54.9 67.7 67.7 5.8 6.7 5.0 184.8 178.7 0.00 0.0550411 75.0
2021-07-22 07:25:00 67.9 63.7 55.1 67.9 67.9 5.3 7.1 4.9 189.9 178.7 0.00 0.0582880 75.0
2021-07-22 07:30:00 68.1 63.3 55.2 68.1 68.1 5.6 7.1 5.1 206.5 185.1 0.00 0.0645262 75.0
2021-07-22 07:35:00 68.2 62.8 55.1 68.2 68.2 7.1 8.0 5.0 180.4 174.6 0.00 0.0606516 75.1
2021-07-22 07:40:00 68.3 63.7 55.6 68.3 68.3 5.3 6.7 5.4 137.2 175.5 0.00 0.0683258 75.1
2021-07-22 07:45:00 68.7 63.1 55.7 68.7 68.7 3.8 6.7 5.5 169.7 180.2 0.00 0.0771866 75.2
2021-07-22 07:50:00 68.7 61.5 54.9 68.7 68.7 6.7 8.8 6.1 171.6 171.1 0.00 0.0852485 75.3
2021-07-22 07:55:00 69.0 62.4 55.6 69.0 69.0 4.9 8.3 5.6 171.8 180.4 0.00 0.0910810 75.3
2021-07-22 08:00:00 69.2 62.2 55.7 69.2 69.2 4.2 7.2 5.8 193.4 176.5 0.00 0.0964430 75.4
2021-07-22 08:05:00 69.7 61.9 56.1 69.7 69.7 4.9 7.6 5.8 156.3 172.8 0.00 0.1014208 75.5
2021-07-22 08:10:00 69.7 61.9 56.1 69.7 69.7 6.9 8.0 6.9 158.9 170.9 0.00 0.1058060 75.6
2021-07-22 08:15:00 70.1 61.6 56.3 70.1 70.1 5.6 8.5 6.8 164.1 180.0 0.00 0.1109255 75.7
2021-07-22 08:20:00 70.6 61.3 56.6 70.6 70.6 6.5 7.8 6.8 161.0 180.3 0.00 0.1152920 75.8
2021-07-22 08:25:00 70.7 59.7 56.0 70.7 70.7 6.3 9.9 7.7 193.6 191.7 0.00 0.1190416 75.9
2021-07-22 08:30:00 71.3 59.6 56.6 71.3 71.3 7.4 8.7 7.1 160.4 192.0 0.00 0.1255256 76.0
2021-07-22 08:35:00 71.5 59.2 56.6 71.5 71.5 6.5 10.6 7.2 206.2 190.8 0.00 0.1305292 76.2
2021-07-22 08:40:00 71.7 57.5 55.9 71.7 71.7 10.3 12.1 8.6 187.7 186.5 0.00 0.1363566 76.3
2021-07-22 08:45:00 72.3 57.9 56.6 72.3 72.3 9.4 10.5 8.0 174.3 184.1 0.00 0.1421866 76.5
2021-07-22 08:50:00 72.5 56.2 56.0 72.5 72.5 9.4 12.2 9.7 188.6 187.0 0.00 0.1470571 76.6
2021-07-22 08:55:00 72.7 55.7 56.0 72.7 72.7 10.3 12.1 9.4 180.7 181.3 0.00 0.1544025 76.8
2021-07-22 09:00:00 73.6 55.3 56.6 73.6 73.6 9.0 11.3 8.7 163.2 184.6 0.00 0.1638636 77.0
2021-07-22 09:05:00 73.5 54.8 56.3 73.5 73.5 4.9 11.5 8.2 187.8 178.6 0.00 0.1486734 77.1
2021-07-22 09:10:00 74.2 53.6 56.3 74.2 74.2 8.5 16.2 10.7 205.1 191.4 0.00 0.1895791 77.3
2021-07-22 09:15:00 74.7 53.3 56.6 74.7 74.7 7.4 11.2 8.8 206.7 191.5 0.00 0.1581684 77.5
2021-07-22 09:20:00 74.5 52.4 55.9 74.5 74.5 7.8 16.7 11.1 173.5 184.2 0.00 0.1658086 77.7
2021-07-22 09:25:00 74.9 52.0 56.0 74.9 74.9 8.0 14.0 10.5 206.4 192.5 0.00 0.1897102 77.9
2021-07-22 09:30:00 75.0 51.8 56.1 75.0 75.0 10.8 15.6 11.6 187.2 186.2 0.00 0.2005956 78.1
2021-07-22 09:35:00 75.8 50.9 56.4 75.8 75.8 9.6 14.6 9.6 198.9 193.5 0.00 0.2063909 78.4
2021-07-22 09:40:00 75.7 51.5 56.6 75.7 75.7 15.1 16.4 11.5 171.0 193.0 0.00 0.2058718 78.5
2021-07-22 09:45:00 76.4 51.4 57.2 76.4 76.4 9.9 15.6 10.2 177.8 190.0 0.00 0.2207297 78.8
2021-07-22 09:50:00 76.8 49.9 56.7 76.8 76.8 11.9 16.5 12.4 179.8 181.8 0.00 0.2438706 79.0
2021-07-22 09:55:00 76.8 49.3 56.3 76.8 76.8 11.3 18.3 12.7 214.1 189.1 0.00 0.2436078 79.3
2021-07-22 10:00:00 77.2 48.4 56.2 77.2 77.2 15.3 16.5 12.5 194.4 186.4 0.00 0.2428346 79.6
2021-07-22 10:05:00 77.1 48.1 56.0 77.1 77.1 15.1 17.8 12.7 173.4 184.7 0.00 0.2091268 79.8
2021-07-22 10:10:00 77.2 47.9 56.0 77.2 77.2 9.7 15.6 11.9 192.0 191.5 0.00 0.2099053 80.1
2021-07-22 10:15:00 77.4 47.0 55.7 77.4 77.4 9.7 14.7 11.8 220.9 192.3 0.00 0.1974398 80.4
2021-07-22 10:20:00 77.5 46.6 55.5 77.5 77.5 11.0 17.8 12.8 170.3 193.2 0.00 0.2123611 80.6
2021-07-22 10:25:00 78.0 46.6 55.9 78.0 78.0 9.4 14.9 11.8 198.5 190.1 0.00 0.2253996 80.9
2021-07-22 10:30:00 79.0 47.2 57.2 79.0 79.0 8.3 11.7 9.6 182.1 189.4 0.00 0.2435051 81.1
2021-07-22 10:35:00 79.6 45.3 56.6 79.6 79.6 12.2 14.6 10.6 181.8 176.5 0.00 0.2459763 81.3
2021-07-22 10:40:00 79.9 46.0 57.3 79.9 79.9 10.6 15.1 10.3 172.4 185.6 0.00 0.2474901 81.6
2021-07-22 10:45:00 79.9 44.5 56.4 79.9 79.9 11.9 14.7 11.0 179.3 184.1 0.00 0.2517234 81.8
2021-07-22 10:50:00 79.6 43.4 55.4 79.6 79.6 15.1 17.2 12.5 206.6 183.0 0.00 0.2548560 82.1
2021-07-22 10:55:00 80.0 46.2 57.5 80.0 80.5 10.3 15.5 10.4 193.6 188.1 0.00 0.2578267 82.4
2021-07-22 11:00:00 80.2 44.8 56.8 80.2 80.5 13.0 17.4 12.3 178.1 177.6 0.00 0.2613735 82.6
2021-07-22 11:05:00 79.8 45.4 56.8 79.8 79.8 9.7 18.0 13.3 189.7 186.0 0.00 0.2636646 82.9
2021-07-22 11:10:00 79.6 44.9 56.4 79.6 79.6 12.6 17.6 13.5 187.9 184.5 0.00 0.2676636 83.2
2021-07-22 11:15:00 80.2 43.9 56.3 80.2 80.4 9.6 17.1 12.7 194.9 179.1 0.00 0.2683068 83.5
2021-07-22 11:20:00 79.9 44.8 56.6 79.9 79.9 11.2 16.5 13.4 170.6 189.8 0.00 0.2654124 83.7
2021-07-22 11:25:00 80.2 44.2 56.5 80.2 80.5 10.3 18.7 13.5 189.9 181.8 0.00 0.2749120 84.0
2021-07-22 11:30:00 80.9 42.9 56.2 80.9 80.9 11.3 16.2 11.3 211.7 189.4 0.00 0.2773186 84.2
2021-07-22 11:35:00 80.2 44.9 56.9 80.2 80.5 8.5 16.9 11.7 184.7 195.5 0.00 0.2797782 84.5
2021-07-22 11:40:00 81.1 44.0 57.1 81.1 81.1 9.2 16.0 10.3 188.5 179.5 0.00 0.2829818 84.8
2021-07-22 11:45:00 81.1 43.8 56.9 81.1 81.1 10.6 17.2 13.4 184.6 181.4 0.00 0.2852574 85.1
2021-07-22 11:50:00 81.8 42.6 56.9 81.8 81.6 13.0 15.3 11.6 166.5 172.2 0.00 0.2875594 85.3
2021-07-22 11:55:00 81.8 42.6 56.9 81.8 81.6 13.9 16.5 12.2 212.1 192.1 0.00 0.2897332 85.6
2021-07-22 12:00:00 81.4 42.5 56.4 81.4 81.2 12.4 17.6 12.3 178.9 198.4 0.00 0.2912178 85.9
2021-07-22 12:05:00 82.1 41.8 56.6 82.1 81.7 10.8 14.7 11.9 182.0 180.9 0.00 0.2937452 86.2
2021-07-22 12:10:00 81.9 42.5 56.9 81.9 81.7 12.4 14.9 11.4 158.2 190.5 0.00 0.2963784 86.4
2021-07-22 12:15:00 82.3 42.8 57.4 82.3 82.0 13.7 16.0 11.9 168.1 187.1 0.00 0.2979998 86.7
2021-07-22 12:20:00 82.3 42.1 57.0 82.3 81.9 14.0 17.4 12.8 188.6 182.0 0.00 0.2895412 87.0
2021-07-22 12:25:00 82.4 41.7 56.8 82.4 82.0 13.1 19.0 13.2 174.2 178.5 0.00 0.2712735 87.2
2021-07-22 12:30:00 81.9 41.7 56.4 81.9 81.6 14.0 17.1 12.8 175.0 186.0 0.00 0.2429873 87.5
2021-07-22 12:35:00 82.5 40.5 56.1 82.5 81.9 11.7 14.7 11.7 212.1 187.8 0.00 0.2481146 87.7
2021-07-22 12:40:00 82.0 41.8 56.5 82.0 81.6 15.8 18.3 13.4 176.9 178.6 0.00 0.2379254 87.9
2021-07-22 12:45:00 82.7 41.2 56.7 82.7 82.2 11.7 19.2 12.0 193.4 180.3 0.00 0.2697845 88.1
2021-07-22 12:50:00 82.9 40.0 56.2 82.9 82.3 9.0 15.6 11.4 193.6 190.0 0.00 0.2582716 88.3
2021-07-22 12:55:00 83.4 40.7 57.1 83.4 82.8 9.0 14.6 11.3 183.2 183.9 0.00 0.2993233 88.5
2021-07-22 13:00:00 84.7 39.1 57.1 84.7 84.7 13.1 13.5 10.1 181.7 180.2 0.00 0.3201285 88.6
2021-07-22 13:05:00 83.2 40.3 56.6 83.2 82.5 13.1 16.5 12.8 183.5 192.7 0.00 0.3085073 88.8
2021-07-22 13:10:00 84.1 39.4 56.8 84.1 84.1 11.0 14.7 10.9 172.7 196.3 0.00 0.3002828 89.0
2021-07-22 13:15:00 84.0 40.4 57.4 84.0 83.3 13.7 17.6 11.5 196.3 200.7 0.00 0.2941583 89.3
2021-07-22 13:20:00 83.5 39.7 56.5 83.5 83.5 11.2 18.0 12.9 179.8 185.4 0.00 0.2814555 89.5
2021-07-22 13:25:00 83.3 39.9 56.4 83.3 83.3 7.8 17.2 12.0 214.7 187.1 0.00 0.2752447 89.7
2021-07-22 13:30:00 83.9 39.6 56.8 83.9 83.9 12.2 14.7 11.1 174.3 175.6 0.00 0.3064890 89.9
2021-07-22 13:35:00 83.5 39.2 56.1 83.5 83.5 7.8 18.7 11.5 195.0 187.2 0.00 0.2854725 90.1
2021-07-22 13:40:00 84.2 38.2 56.0 84.2 84.2 17.8 18.1 11.8 198.0 188.7 0.00 0.3100644 90.3
2021-07-22 13:45:00 84.5 38.0 56.0 84.5 84.5 12.4 14.6 10.9 230.4 184.8 0.00 0.3129919 90.5
2021-07-22 13:50:00 85.0 39.0 57.3 85.0 85.0 10.5 13.7 10.6 174.7 189.0 0.00 0.2640637 90.6
2021-07-22 13:55:00 84.6 39.0 56.9 84.6 84.6 8.7 13.5 9.8 204.7 180.2 0.00 0.2172797 90.8
2021-07-22 14:00:00 84.1 38.6 56.2 84.1 84.1 10.3 15.1 10.8 212.1 198.5 0.00 0.1993276 90.8
2021-07-22 14:05:00 84.2 38.4 56.2 84.2 84.2 10.5 13.7 11.1 202.4 197.7 0.00 0.2028079 90.9
2021-07-22 14:10:00 84.2 39.1 56.7 84.2 84.2 8.1 15.5 10.4 188.7 195.6 0.00 0.2345432 91.0
2021-07-22 14:15:00 84.7 39.0 57.0 84.7 84.7 12.1 16.7 12.1 175.0 171.1 0.00 0.2662134 91.0
2021-07-22 14:20:00 84.1 39.5 56.9 84.1 84.1 9.0 15.6 11.3 194.8 182.8 0.00 0.2091994 91.1
2021-07-22 14:25:00 84.5 39.3 57.1 84.5 84.5 7.1 17.4 10.4 187.9 178.0 0.00 0.2542697 91.1
2021-07-22 14:30:00 85.4 38.4 57.2 85.4 85.4 9.9 16.4 9.8 183.2 195.3 0.00 0.2719613 91.2
2021-07-22 14:35:00 85.1 38.1 56.7 85.1 85.1 12.4 16.4 11.9 180.8 168.7 0.00 0.2519296 91.3
2021-07-22 14:40:00 85.2 37.6 56.4 85.2 85.2 11.2 14.7 10.2 184.6 177.9 0.00 0.2472749 91.4
2021-07-22 14:45:00 85.2 38.4 57.1 85.2 85.2 10.5 16.4 11.1 173.4 189.2 0.00 0.2594676 91.5
2021-07-22 14:50:00 84.9 38.1 56.6 84.9 84.9 12.2 17.8 13.1 195.7 182.7 0.00 0.2642245 91.6
2021-07-22 14:55:00 85.7 37.3 56.7 85.7 85.7 11.5 14.9 11.0 224.1 194.7 0.00 0.2602943 91.7
2021-07-22 15:00:00 86.1 38.3 57.8 86.1 86.1 9.9 15.5 11.4 189.4 207.1 0.00 0.2570963 91.9
2021-07-22 15:05:00 85.3 37.9 56.8 85.3 85.3 11.9 16.9 11.5 189.6 187.3 0.00 0.2536478 92.0
2021-07-22 15:10:00 86.0 35.6 55.6 86.0 86.0 11.2 14.4 11.2 206.7 202.4 0.00 0.2499281 92.1
2021-07-22 15:15:00 85.5 37.4 56.6 85.5 85.5 10.1 14.0 9.8 153.0 189.0 0.00 0.2464203 92.2
2021-07-22 15:20:00 86.4 37.4 57.3 86.4 86.4 10.8 14.2 10.7 189.5 199.2 0.00 0.2426241 92.3
2021-07-22 15:25:00 85.9 37.5 57.0 85.9 85.9 7.6 16.0 11.5 190.3 208.6 0.00 0.2396816 92.5
2021-07-22 15:30:00 86.2 37.6 57.3 86.2 86.2 12.2 14.9 10.6 175.4 175.4 0.00 0.2364154 92.5
2021-07-22 15:35:00 86.2 37.1 56.9 86.2 86.2 9.9 14.4 10.4 170.2 197.5 0.00 0.2332026 92.6
2021-07-22 15:40:00 86.2 36.9 56.8 86.2 86.2 8.8 13.7 10.1 201.7 198.0 0.00 0.2299228 92.7
2021-07-22 15:45:00 85.7 37.0 56.4 85.7 85.7 10.5 15.1 11.6 197.5 186.2 0.00 0.2259793 92.8
2021-07-22 15:50:00 86.0 37.3 57.0 86.0 86.0 11.0 12.6 10.0 207.3 188.7 0.00 0.2219066 92.8
2021-07-22 15:55:00 86.5 38.0 57.9 86.5 86.5 8.5 16.5 10.3 209.1 206.1 0.00 0.2193504 92.8
2021-07-22 16:00:00 86.4 37.0 57.1 86.4 86.4 12.2 16.4 11.6 233.5 201.0 0.00 0.2162386 92.8
2021-07-22 16:05:00 86.4 35.7 56.1 86.4 86.4 11.0 14.9 10.6 172.6 198.0 0.00 0.2129476 92.8
2021-07-22 16:10:00 86.0 36.2 56.1 86.0 86.0 8.8 15.3 10.8 191.1 191.8 0.00 0.2086448 92.7
2021-07-22 16:15:00 86.1 36.1 56.1 86.1 86.1 9.9 18.5 11.4 173.4 185.7 0.00 0.2031730 92.6
2021-07-22 16:20:00 86.2 36.2 56.3 86.2 86.2 13.0 13.3 10.3 224.7 196.0 0.00 0.1995588 92.6
2021-07-22 16:25:00 86.2 36.5 56.5 86.2 86.2 12.1 14.2 10.3 199.1 196.3 0.00 0.1970783 92.5
2021-07-22 16:30:00 86.0 36.2 56.1 86.0 86.0 11.0 14.9 11.5 213.4 197.2 0.00 0.1931505 92.5
2021-07-22 16:35:00 85.8 36.2 55.9 85.8 85.8 9.2 19.0 12.6 172.7 201.5 0.00 0.1865028 92.4
2021-07-22 16:40:00 85.9 36.5 56.2 85.9 85.9 7.6 13.5 10.4 228.7 200.1 0.00 0.1824097 92.4
2021-07-22 16:45:00 85.7 36.9 56.4 85.7 85.7 10.6 15.1 10.3 238.9 194.0 0.00 0.1780818 92.4
2021-07-22 16:50:00 85.9 36.8 56.4 85.9 85.9 10.3 14.6 12.2 229.9 207.0 0.00 0.1737832 92.4
2021-07-22 16:55:00 86.5 35.7 56.1 86.5 86.5 13.3 17.4 11.8 207.0 203.9 0.00 0.1707072 92.3
2021-07-22 17:00:00 86.0 35.9 55.9 86.0 86.0 13.7 16.2 10.0 186.8 186.2 0.00 0.1660565 92.3
2021-07-22 17:05:00 85.7 36.2 55.9 85.7 85.7 9.9 14.4 11.4 198.4 193.2 0.00 0.1599987 92.3
2021-07-22 17:10:00 85.8 36.5 56.1 85.8 85.8 7.2 12.8 9.5 181.5 191.0 0.00 0.1546261 92.3
2021-07-22 17:15:00 85.6 36.8 56.2 85.6 85.6 6.5 14.2 9.3 180.5 185.7 0.00 0.1494901 92.3
2021-07-22 17:20:00 85.9 35.7 55.7 85.9 85.9 9.6 16.2 11.2 221.1 200.7 0.00 0.1453588 92.2
2021-07-22 17:25:00 85.9 36.5 56.3 85.9 85.9 8.5 15.6 10.5 186.4 192.8 0.00 0.1400409 92.2
2021-07-22 17:30:00 85.6 35.8 55.4 85.6 85.6 9.4 14.6 10.4 178.8 191.7 0.00 0.1331184 92.2
2021-07-22 17:35:00 85.9 36.7 56.4 85.9 85.9 9.7 11.2 8.8 171.2 200.6 0.00 0.1289124 92.1
2021-07-22 17:40:00 85.6 36.2 55.7 85.6 85.6 9.0 13.3 10.1 193.7 186.7 0.00 0.1252947 92.1
2021-07-22 17:45:00 85.7 36.0 55.6 85.7 85.7 15.3 15.3 10.0 206.6 199.5 0.00 0.1195275 92.0
2021-07-22 17:50:00 85.7 36.4 56.0 85.7 85.7 9.2 14.2 9.5 191.4 190.8 0.00 0.1141071 92.0
2021-07-22 17:55:00 85.7 37.3 56.6 85.7 85.7 7.2 13.3 8.4 194.6 181.7 0.00 0.1107268 91.9
2021-07-22 18:00:00 85.9 37.0 56.7 85.9 85.9 7.8 11.0 7.2 215.5 196.2 0.00 0.0963062 91.8
2021-07-22 18:05:00 85.3 36.1 55.5 85.3 85.3 11.5 12.4 8.2 190.3 194.5 0.00 0.0837452 91.8
2021-07-22 18:10:00 84.7 36.8 55.4 84.7 84.7 8.5 11.7 9.6 201.3 187.4 0.00 0.0738705 91.7
2021-07-22 18:15:00 84.5 37.2 55.5 84.5 84.5 9.7 11.3 9.7 177.5 187.4 0.00 0.0621159 91.6
2021-07-22 18:20:00 84.0 37.2 55.1 84.0 84.0 8.5 13.5 9.5 204.1 193.0 0.00 0.0452871 91.6
2021-07-22 18:25:00 84.3 37.1 55.3 84.3 84.3 8.7 10.6 8.5 190.4 190.2 0.00 0.0786500 91.4
2021-07-22 18:30:00 84.5 37.3 55.6 84.5 84.5 7.4 12.1 8.7 190.3 190.0 0.00 0.0806435 91.3
2021-07-22 18:35:00 84.5 37.3 55.5 84.5 84.5 9.2 10.5 8.2 179.2 182.9 0.00 0.0776548 91.2
2021-07-22 18:40:00 84.3 37.5 55.6 84.3 84.3 8.0 12.2 9.1 173.7 180.4 0.00 0.0715553 91.1
2021-07-22 18:45:00 84.3 37.7 55.8 84.3 84.3 6.3 11.9 7.9 200.2 189.5 0.00 0.0655567 91.0
2021-07-22 18:50:00 84.3 36.8 55.1 84.3 84.3 10.3 10.3 7.0 177.1 193.9 0.00 0.0601176 90.8
2021-07-22 18:55:00 84.0 38.1 55.7 84.0 84.0 7.4 11.3 8.0 172.8 186.0 0.00 0.0542998 90.8
2021-07-22 19:00:00 83.5 38.3 55.4 83.5 83.5 13.5 13.5 7.8 174.7 180.7 0.00 0.0500346 90.7
2021-07-22 19:05:00 83.2 39.1 55.7 83.2 83.2 8.8 11.5 8.7 171.7 183.8 0.00 0.0480411 90.5
2021-07-22 19:10:00 83.0 39.3 55.7 83.0 83.0 7.6 11.2 8.9 185.5 182.7 0.00 0.0444680 90.4
2021-07-22 19:15:00 82.9 39.6 55.8 82.9 82.9 6.0 11.0 9.0 203.4 184.9 0.00 0.0404027 90.3
2021-07-22 19:20:00 82.8 38.7 55.1 82.8 82.8 8.5 11.0 8.7 170.4 175.0 0.00 0.0360599 90.2
2021-07-22 19:25:00 82.5 39.1 55.1 82.5 82.5 8.5 10.3 7.9 168.4 174.5 0.00 0.0322196 90.0
2021-07-22 19:30:00 82.3 39.3 55.1 82.3 82.3 6.0 11.5 8.7 191.2 174.3 0.00 0.0276403 89.9
2021-07-22 19:35:00 81.9 40.2 55.3 81.9 81.4 6.7 10.3 7.9 182.4 172.5 0.00 0.0227573 89.8
2021-07-22 19:40:00 81.5 40.9 55.5 81.5 81.2 7.4 9.7 7.3 171.4 171.9 0.00 0.0181502 89.6
2021-07-22 19:45:00 80.9 42.0 55.6 80.9 80.7 7.6 8.3 6.3 166.9 168.2 0.00 0.0134717 89.5
2021-07-22 19:50:00 80.4 42.6 55.6 80.4 80.5 5.6 7.6 6.2 153.2 164.8 0.00 0.0089147 89.3
2021-07-22 19:55:00 79.9 43.6 55.8 79.9 79.9 4.7 6.3 5.3 160.6 162.6 0.00 0.0043320 89.2
2021-07-22 20:00:00 79.2 44.9 56.0 79.2 79.2 3.8 5.6 4.2 151.1 162.6 0.00 0.0012308 89.0
2021-07-22 20:05:00 78.8 45.3 55.8 78.8 78.8 5.6 5.6 4.3 152.8 163.5 0.00 0.0000170 88.9
2021-07-22 20:10:00 78.4 45.8 55.8 78.4 78.4 4.4 5.1 4.1 169.6 158.7 0.00 0.0000000 88.8
2021-07-22 20:15:00 78.2 46.2 55.9 78.2 78.2 3.8 4.9 4.0 157.5 149.8 0.00 0.0000000 88.6
2021-07-22 20:20:00 77.8 46.5 55.7 77.8 77.8 4.0 5.3 4.1 158.0 148.4 0.00 0.0000000 88.4
2021-07-22 20:25:00 77.5 46.9 55.6 77.5 77.5 3.7 5.3 3.6 155.1 148.1 0.00 0.0000000 88.3
2021-07-22 20:30:00 77.4 46.7 55.4 77.4 77.4 3.1 4.9 3.5 145.6 147.4 0.00 0.0000000 88.1
2021-07-22 20:35:00 77.1 46.7 55.1 77.1 77.1 3.3 4.0 3.2 136.5 147.7 0.00 0.0000000 87.9
2021-07-22 20:40:00 77.0 46.9 55.2 77.0 77.0 3.1 4.4 3.3 141.1 148.6 0.00 0.0000000 87.8
2021-07-22 20:45:00 76.7 47.3 55.2 76.7 76.7 3.0 5.1 3.6 157.4 144.3 0.00 0.0000000 87.6
2021-07-22 20:50:00 76.3 48.6 55.5 76.3 76.3 3.0 3.3 2.7 183.8 160.6 0.00 0.0000000 87.5
2021-07-22 20:55:00 76.2 48.6 55.4 76.2 76.2 3.8 4.4 3.4 159.7 171.9 0.00 0.0000000 87.3
2021-07-22 21:00:00 75.9 49.3 55.5 75.9 75.9 2.8 4.4 3.2 156.0 155.5 0.00 0.0000000 87.1
2021-07-22 21:05:00 75.4 50.5 55.8 75.4 75.4 3.1 3.7 2.9 142.8 138.4 0.00 0.0000000 87.0
2021-07-22 21:10:00 75.2 50.6 55.6 75.2 75.2 3.7 3.8 3.2 143.5 141.5 0.00 0.0000000 86.8
2021-07-22 21:15:00 75.0 51.2 55.7 75.0 75.0 3.0 3.8 3.2 133.3 133.6 0.00 0.0000000 86.7
2021-07-22 21:20:00 75.0 51.0 55.7 75.0 75.0 3.7 4.4 3.7 114.3 128.6 0.00 0.0000000 86.5
2021-07-22 21:25:00 75.2 50.6 55.6 75.2 75.2 4.0 4.9 4.0 139.0 140.9 0.00 0.0000000 86.3
2021-07-22 21:30:00 75.3 50.2 55.5 75.3 75.3 4.4 5.6 4.2 148.1 150.5 0.00 0.0000000 86.2
2021-07-22 21:35:00 75.6 50.1 55.7 75.6 75.6 4.7 6.5 4.9 104.2 137.6 0.00 0.0000000 86.0
2021-07-22 21:40:00 75.2 50.7 55.7 75.2 75.2 6.0 9.2 6.5 136.1 126.5 0.00 0.0000000 85.9
2021-07-22 21:45:00 74.8 51.5 55.8 74.8 74.8 3.8 6.2 5.3 125.2 137.1 0.00 0.0000000 85.8
2021-07-22 21:50:00 73.7 53.6 55.8 73.7 73.7 3.3 5.1 3.3 125.9 125.2 0.00 0.0000000 85.6
2021-07-22 21:55:00 73.0 55.3 56.1 73.0 73.0 3.1 3.3 2.8 134.1 122.6 0.00 0.0000000 85.5
2021-07-22 22:00:00 72.5 56.2 56.0 72.5 72.5 3.3 3.8 3.1 99.5 107.0 0.00 0.0000000 85.3
2021-07-22 22:05:00 72.2 56.7 56.0 72.2 72.2 2.4 3.5 2.3 101.8 116.4 0.00 0.0000000 85.2
2021-07-22 22:10:00 72.1 57.0 56.1 72.1 72.1 2.2 3.1 2.3 172.6 146.3 0.00 0.0000000 85.1
2021-07-22 22:15:00 72.3 56.9 56.2 72.3 72.3 1.5 2.1 1.7 161.6 153.6 0.00 0.0000000 84.9
2021-07-22 22:20:00 72.3 57.2 56.3 72.3 72.3 2.8 3.1 2.3 124.9 134.3 0.00 0.0000000 84.8
2021-07-22 22:25:00 72.1 57.9 56.5 72.1 72.1 2.6 3.7 3.0 117.9 129.8 0.00 0.0000000 84.7
2021-07-22 22:30:00 71.8 58.5 56.4 71.8 71.8 2.4 3.1 2.6 104.3 126.1 0.00 0.0000000 84.5
2021-07-22 22:35:00 71.7 59.2 56.6 71.7 71.7 2.8 3.3 2.5 117.3 118.5 0.00 0.0000000 84.4
2021-07-22 22:40:00 71.3 59.7 56.5 71.3 71.3 2.2 3.5 2.7 126.1 124.6 0.00 0.0000000 84.3
2021-07-22 22:45:00 71.3 59.2 56.3 71.3 71.3 1.9 2.6 2.1 136.5 132.3 0.00 0.0000000 84.2
2021-07-22 22:50:00 71.7 58.3 56.2 71.7 71.7 2.6 3.0 1.9 127.9 134.5 0.00 0.0000000 84.0
2021-07-22 22:55:00 71.7 58.2 56.2 71.7 71.7 3.3 4.0 2.6 131.5 141.6 0.00 0.0000000 83.9
2021-07-22 23:00:00 71.8 58.2 56.3 71.8 71.8 2.8 5.1 3.4 181.4 147.7 0.00 0.0000000 83.8
2021-07-22 23:05:00 71.7 58.3 56.2 71.7 71.7 3.3 5.6 3.8 142.4 154.3 0.00 0.0000000 83.6
2021-07-22 23:10:00 71.4 58.6 56.2 71.4 71.4 3.5 4.2 3.4 155.7 141.3 0.00 0.0000000 83.5
2021-07-22 23:15:00 71.5 57.8 55.9 71.5 71.5 4.2 4.2 3.2 142.8 145.7 0.00 0.0000000 83.4
2021-07-22 23:20:00 71.6 57.9 56.0 71.6 71.6 2.2 3.7 2.7 164.1 157.4 0.00 0.0000000 83.3
2021-07-22 23:25:00 71.6 57.8 55.9 71.6 71.6 3.3 3.5 2.6 170.1 155.0 0.00 0.0000000 83.2
2021-07-22 23:30:00 72.0 55.3 55.1 72.0 72.0 5.8 9.7 4.5 154.7 151.4 0.00 0.0000000 83.1
2021-07-22 23:35:00 72.5 54.9 55.4 72.5 72.5 3.3 8.5 4.9 136.9 151.2 0.00 0.0000000 82.9
2021-07-22 23:40:00 72.4 54.7 55.2 72.4 72.4 3.8 5.5 4.3 142.3 146.0 0.00 0.0000000 82.8
2021-07-22 23:45:00 72.2 55.4 55.3 72.2 72.2 3.5 4.4 3.1 140.2 161.2 0.00 0.0000000 82.7
2021-07-22 23:50:00 72.2 55.4 55.3 72.2 72.2 3.0 4.6 3.5 153.6 166.0 0.00 0.0000000 82.6
2021-07-22 23:55:00 72.0 55.3 55.1 72.0 72.0 4.6 4.9 3.8 197.0 179.9 0.00 0.0000000 82.5
2021-07-23 00:00:00 72.2 54.5 54.9 72.2 72.2 4.7 5.8 4.3 186.0 177.4 0.00 0.0000000 82.4

Data is courtesy of the NM Climate Center. DO NOT USE IN LEGAL PROCEEDINGS.